createdAt,value
2018-09-29T00:00:42.773Z,98.80
2018-09-29T00:03:11.321Z,99.10
2018-09-29T00:05:40.063Z,99.00
2018-09-29T00:08:08.574Z,98.80
2018-09-29T00:10:37.137Z,99.20
2018-09-29T00:13:05.596Z,99.40
2018-09-29T00:15:34.014Z,99.10
2018-09-29T00:18:02.370Z,99.40
2018-09-29T00:20:30.826Z,99.30
2018-09-29T00:22:59.170Z,99.40
2018-09-29T00:25:27.669Z,99.20
2018-09-29T00:27:55.980Z,99.30
2018-09-29T00:30:24.634Z,99.40
2018-09-29T00:32:53.060Z,99.40
2018-09-29T00:35:21.598Z,99.30
2018-09-29T00:37:50.167Z,99.50
2018-09-29T00:40:18.563Z,99.90
2018-09-29T00:42:46.992Z,99.60
2018-09-29T00:45:15.623Z,99.70
2018-09-29T00:47:43.951Z,99.60
2018-09-29T00:50:12.379Z,99.80
2018-09-29T00:52:40.768Z,99.90
2018-09-29T00:55:09.145Z,99.90
2018-09-29T00:57:37.499Z,99.80
2018-09-29T01:00:05.878Z,99.80
2018-09-29T01:02:34.463Z,99.40
2018-09-29T01:05:02.859Z,99.20
2018-09-29T01:07:31.226Z,99.10
2018-09-29T01:09:59.697Z,98.70
2018-09-29T01:12:28.091Z,98.80
2018-09-29T01:14:56.472Z,99.00
2018-09-29T01:17:24.881Z,99.20
2018-09-29T01:19:53.433Z,99.10
2018-09-29T01:22:21.770Z,99.20
2018-09-29T01:24:50.145Z,99.40
2018-09-29T01:27:19.704Z,99.40
2018-09-29T01:29:48.132Z,99.40
2018-09-29T01:32:16.515Z,99.50
2018-09-29T01:34:44.987Z,99.50
2018-09-29T01:37:13.401Z,99.50
2018-09-29T01:39:41.919Z,99.50
2018-09-29T01:42:10.251Z,99.70
2018-09-29T01:44:38.705Z,99.50
2018-09-29T01:47:07.217Z,99.90
2018-09-29T01:49:35.576Z,99.90
2018-09-29T01:52:03.898Z,99.60
2018-09-29T01:54:32.263Z,99.50
2018-09-29T01:57:00.572Z,99.40
2018-09-29T01:59:28.972Z,99.30
2018-09-29T02:01:57.369Z,99.40
2018-09-29T02:04:25.701Z,99.40
2018-09-29T02:06:54.063Z,99.00
2018-09-29T02:09:22.485Z,98.80
2018-09-29T02:11:51.325Z,98.60
2018-09-29T02:14:19.731Z,98.40
2018-09-29T02:16:48.153Z,98.40
2018-09-29T02:19:16.512Z,98.30
2018-09-29T02:21:44.850Z,98.00
2018-09-29T02:24:13.238Z,98.40
2018-09-29T02:26:41.608Z,98.80
2018-09-29T02:29:09.901Z,98.60
2018-09-29T02:31:38.329Z,98.20
2018-09-29T02:34:06.883Z,98.50
2018-09-29T02:36:35.208Z,98.30
2018-09-29T02:39:03.706Z,98.00
2018-09-29T02:41:32.104Z,97.70
2018-09-29T02:44:00.399Z,97.70
2018-09-29T02:46:28.820Z,97.60
2018-09-29T02:48:57.126Z,97.40
2018-09-29T02:51:25.572Z,97.70
2018-09-29T02:53:53.833Z,97.50
2018-09-29T02:56:22.183Z,97.70
2018-09-29T02:58:50.517Z,97.20
2018-09-29T03:01:18.961Z,97.30
2018-09-29T03:03:48.426Z,97.20
2018-09-29T03:06:16.814Z,97.10
2018-09-29T03:08:45.191Z,97.10
2018-09-29T03:11:13.647Z,97.20
2018-09-29T03:13:42.043Z,97.20
2018-09-29T03:16:10.428Z,97.20
2018-09-29T03:18:38.959Z,97.40
2018-09-29T03:21:07.330Z,97.30
2018-09-29T03:23:35.616Z,96.50
2018-09-29T03:26:03.972Z,96.40
2018-09-29T03:28:32.328Z,96.40
2018-09-29T03:31:00.712Z,96.70
2018-09-29T03:33:29.070Z,96.00
2018-09-29T03:35:57.739Z,96.10
2018-09-29T03:38:26.172Z,96.30
2018-09-29T03:40:54.568Z,95.80
2018-09-29T03:43:22.996Z,95.90
2018-09-29T03:45:51.394Z,96.40
2018-09-29T03:48:19.799Z,96.10
2018-09-29T03:50:48.154Z,95.90
2018-09-29T03:53:16.560Z,96.20
2018-09-29T03:55:45.059Z,96.20
2018-09-29T03:58:13.471Z,96.60
2018-09-29T04:00:41.944Z,96.50
2018-09-29T04:03:10.421Z,96.60
2018-09-29T04:05:38.722Z,96.70
2018-09-29T04:08:07.172Z,96.30
2018-09-29T04:10:35.701Z,96.50
2018-09-29T04:13:04.154Z,96.50
2018-09-29T04:15:32.548Z,96.20
2018-09-29T04:18:00.962Z,96.30
2018-09-29T04:20:29.423Z,96.30
2018-09-29T04:22:57.777Z,96.50
2018-09-29T04:25:26.187Z,96.80
2018-09-29T04:27:54.687Z,96.60
2018-09-29T04:30:23.068Z,96.50
2018-09-29T04:32:51.476Z,96.20
2018-09-29T04:35:19.795Z,96.50
2018-09-29T04:37:48.210Z,96.50
2018-09-29T04:40:16.692Z,96.20
2018-09-29T04:42:45.048Z,96.30
2018-09-29T04:45:13.401Z,96.40
2018-09-29T04:47:42.249Z,96.20
2018-09-29T04:50:10.631Z,96.40
2018-09-29T04:52:39.009Z,96.10
2018-09-29T04:55:07.501Z,96.50
2018-09-29T04:57:35.805Z,96.40
2018-09-29T05:00:04.289Z,96.00
2018-09-29T05:02:32.628Z,96.00
2018-09-29T05:05:01.050Z,95.90
2018-09-29T05:07:29.425Z,95.90
2018-09-29T05:09:57.807Z,96.20
2018-09-29T05:12:26.286Z,96.10
2018-09-29T05:14:54.645Z,96.20
2018-09-29T05:17:23.107Z,96.20
2018-09-29T05:19:51.839Z,95.60
2018-09-29T05:22:20.216Z,96.00
2018-09-29T05:24:48.613Z,96.20
2018-09-29T05:27:17.008Z,99.60
2018-09-29T05:29:45.381Z,98.20
2018-09-29T05:32:13.778Z,97.90
2018-09-29T05:34:42.212Z,99.20
2018-09-29T05:37:10.675Z,95.50
2018-09-29T05:39:38.977Z,95.10
2018-09-29T05:42:07.395Z,94.50
2018-09-29T05:44:35.803Z,95.00
2018-09-29T05:47:04.247Z,95.70
2018-09-29T05:49:32.810Z,96.00
2018-09-29T05:52:01.235Z,96.20
2018-09-29T05:54:29.613Z,96.40
2018-09-29T05:56:57.995Z,97.30
2018-09-29T05:59:26.352Z,97.50
2018-09-29T06:01:55.066Z,97.70
2018-09-29T06:04:23.458Z,97.60
2018-09-29T06:06:52.840Z,97.50
2018-09-29T06:09:21.125Z,97.80
2018-09-29T06:11:49.570Z,97.80
2018-09-29T06:14:18.137Z,97.90
2018-09-29T06:16:46.584Z,98.10
2018-09-29T06:19:14.950Z,98.30
2018-09-29T06:21:43.514Z,98.10
2018-09-29T06:24:11.861Z,97.80
2018-09-29T06:26:40.552Z,97.50
2018-09-29T06:29:09.083Z,97.60
2018-09-29T06:31:37.527Z,97.60
2018-09-29T06:34:06.014Z,97.40
2018-09-29T06:36:34.459Z,97.40
2018-09-29T06:39:03.029Z,97.60
